Cudworth, Canada
Current Conditions -  °F | °C
As of 8:00 AM on Thursday 30 Oct 2014 (Local Time) from CYXE Reporting Station
Overcast Overcast  
Wind Chill: -8°   Ceiling: 1100
Heat Index: -2°   Visibility: 15mi
Dew Point: -4°   Wind: 12mph
Humidity: 86%   Direction: 90°E
Pressure: 30.45"   Gusts: NA
Location:  52.48°N, 105.72°W
Report Text: CYXE 301400Z 09010KT 15SM OVC011 M02/M04 A3045 RMK SC8 SLP341
Loading
Personal Weather Stations






























Interactive Weather Map
Tropical Storm Tracking
New forecast layout! Learn more

10-Day Weather Forecast

Advertisements
Track Severe Weather on mobile